DAL2120 KLAS-KPHX
Flight info
| Callsign | DAL2120 |
|---|---|
| Flight time | 0h 45m |
| Altitude | 29000 |
| Route | RASLR3 ZAYNE WOTRO BRUSR1 |
| Aircraft | A21N/M-SADE2E3GHIJ4J7M3P2RWXYZ/LB1D1 |
Departure
| Time | 2026-05-01 13:53 |
|---|---|
| Airport | Harry Reid International Airport (KLAS) |
Arrival
| Time | 2026-05-01 14:39 |
|---|---|
| Airport | Phoenix Sky Harbor International Airport (KPHX) |
| Time | Latitude | Longitude | Altitude | Speed | Heading |
|---|---|---|---|---|---|
| 2026-05-01 13:13 | 36.08040 | -115.13879 | 2119 ft | 0 kts | 343° |
| 2026-05-01 13:39 | 36.08026 | -115.13874 | 2120 ft | 1 kts | 343° |
| 2026-05-01 13:39 | 36.08000 | -115.13864 | 2122 ft | 4 kts | 336° |
| 2026-05-01 13:40 | 36.07980 | -115.13848 | 2123 ft | 2 kts | 297° |
| 2026-05-01 13:40 | 36.07978 | -115.13837 | 2125 ft | 2 kts | 225° |
| 2026-05-01 13:47 | 36.07963 | -115.13856 | 2122 ft | 6 kts | 225° |
| 2026-05-01 13:47 | 36.07918 | -115.13911 | 2124 ft | 12 kts | 224° |
| 2026-05-01 13:47 | 36.07845 | -115.14000 | 2126 ft | 17 kts | 237° |
| 2026-05-01 13:47 | 36.07823 | -115.14129 | 2123 ft | 12 kts | 248° |
| 2026-05-01 13:48 | 36.07757 | -115.14204 | 2125 ft | 15 kts | 257° |
| 2026-05-01 13:48 | 36.07754 | -115.14341 | 2126 ft | 17 kts | 272° |
| 2026-05-01 13:48 | 36.07762 | -115.14496 | 2125 ft | 19 kts | 274° |
| 2026-05-01 13:48 | 36.07773 | -115.14663 | 2126 ft | 20 kts | 274° |
| 2026-05-01 13:49 | 36.07784 | -115.14846 | 2130 ft | 23 kts | 274° |
| 2026-05-01 13:49 | 36.07796 | -115.15045 | 2130 ft | 24 kts | 274° |
| 2026-05-01 13:49 | 36.07805 | -115.15261 | 2133 ft | 26 kts | 270° |
| 2026-05-01 13:49 | 36.07804 | -115.15493 | 2133 ft | 28 kts | 269° |
| 2026-05-01 13:50 | 36.07803 | -115.15735 | 2129 ft | 29 kts | 270° |
| 2026-05-01 13:50 | 36.07803 | -115.15988 | 2127 ft | 30 kts | 270° |
| 2026-05-01 13:50 | 36.07804 | -115.16224 | 2125 ft | 19 kts | 271° |
| 2026-05-01 13:50 | 36.07744 | -115.16347 | 2127 ft | 19 kts | 202° |
| 2026-05-01 13:51 | 36.07615 | -115.16416 | 2127 ft | 21 kts | 205° |
| 2026-05-01 13:51 | 36.07475 | -115.16498 | 2132 ft | 24 kts | 205° |
| 2026-05-01 13:51 | 36.07384 | -115.16602 | 2130 ft | 13 kts | 292° |
| 2026-05-01 13:51 | 36.07423 | -115.16706 | 2127 ft | 13 kts | 295° |
| 2026-05-01 13:52 | 36.07426 | -115.16714 | 2127 ft | 0 kts | 293° |
| 2026-05-01 13:52 | 36.07441 | -115.16725 | 2127 ft | 6 kts | 350° |
| 2026-05-01 13:52 | 36.07497 | -115.16704 | 2128 ft | 12 kts | 26° |
| 2026-05-01 13:52 | 36.07731 | -115.16572 | 2127 ft | 71 kts | 26° |
| 2026-05-01 13:53 | 36.08386 | -115.16198 | 2131 ft | 133 kts | 24° |
| 2026-05-01 13:53 | 36.10404 | -115.15044 | 2584 ft | 172 kts | 22° |
| 2026-05-01 13:53 | 36.11497 | -115.14512 | 3263 ft | 168 kts | 21° |
| 2026-05-01 13:54 | 36.12500 | -115.13718 | 3711 ft | 183 kts | 50° |
| 2026-05-01 13:54 | 36.12894 | -115.12123 | 3966 ft | 210 kts | 83° |
| 2026-05-01 13:54 | 36.13017 | -115.10249 | 4435 ft | 231 kts | 79° |
| 2026-05-01 13:54 | 36.13221 | -115.08172 | 4954 ft | 253 kts | 79° |
| 2026-05-01 13:55 | 36.13438 | -115.05964 | 5726 ft | 262 kts | 79° |
| 2026-05-01 13:55 | 36.13658 | -115.03702 | 6563 ft | 267 kts | 79° |
| 2026-05-01 13:55 | 36.13880 | -115.01408 | 7413 ft | 271 kts | 80° |
| 2026-05-01 13:55 | 36.14105 | -114.99072 | 8255 ft | 276 kts | 79° |
| 2026-05-01 13:56 | 36.14334 | -114.96688 | 9064 ft | 281 kts | 79° |
| 2026-05-01 13:56 | 36.14569 | -114.94265 | 9879 ft | 286 kts | 79° |
| 2026-05-01 13:56 | 36.14821 | -114.91808 | 10597 ft | 291 kts | 79° |
| 2026-05-01 13:56 | 36.15076 | -114.89304 | 11345 ft | 296 kts | 80° |
| 2026-05-01 13:57 | 36.15056 | -114.86736 | 12104 ft | 304 kts | 97° |
| 2026-05-01 13:57 | 36.14536 | -114.84170 | 12867 ft | 310 kts | 103° |
| 2026-05-01 13:57 | 36.13911 | -114.81598 | 13670 ft | 314 kts | 104° |
| 2026-05-01 13:57 | 36.13288 | -114.79028 | 14340 ft | 319 kts | 104° |
| 2026-05-01 13:58 | 36.12461 | -114.76459 | 14951 ft | 327 kts | 120° |
| 2026-05-01 13:58 | 36.10920 | -114.74347 | 15431 ft | 340 kts | 143° |
| 2026-05-01 13:58 | 36.08892 | -114.72700 | 15743 ft | 357 kts | 149° |
| 2026-05-01 13:58 | 36.06709 | -114.71067 | 16046 ft | 376 kts | 149° |
| 2026-05-01 13:59 | 36.04445 | -114.69346 | 16548 ft | 386 kts | 148° |
| 2026-05-01 13:59 | 36.02161 | -114.67566 | 17210 ft | 391 kts | 148° |
| 2026-05-01 13:59 | 35.99855 | -114.65745 | 17883 ft | 396 kts | 148° |
| 2026-05-01 13:59 | 35.97522 | -114.63894 | 18474 ft | 402 kts | 148° |
| 2026-05-01 14:00 | 35.95150 | -114.62013 | 18834 ft | 407 kts | 148° |
| 2026-05-01 14:00 | 35.92762 | -114.60117 | 18939 ft | 408 kts | 148° |
| 2026-05-01 14:00 | 35.90368 | -114.58218 | 18941 ft | 410 kts | 148° |
| 2026-05-01 14:00 | 35.87972 | -114.56319 | 18925 ft | 408 kts | 148° |
| 2026-05-01 14:01 | 35.85580 | -114.54424 | 18874 ft | 408 kts | 148° |
| 2026-05-01 14:01 | 35.83225 | -114.52560 | 18868 ft | 408 kts | 148° |
| 2026-05-01 14:01 | 35.80825 | -114.50662 | 18852 ft | 408 kts | 148° |
| 2026-05-01 14:01 | 35.78437 | -114.48775 | 18851 ft | 408 kts | 148° |
| 2026-05-01 14:02 | 35.76043 | -114.46885 | 18848 ft | 408 kts | 148° |
| 2026-05-01 14:02 | 35.73655 | -114.44999 | 18847 ft | 408 kts | 148° |
| 2026-05-01 14:02 | 35.71262 | -114.43112 | 18846 ft | 408 kts | 148° |
| 2026-05-01 14:02 | 35.68950 | -114.41075 | 18870 ft | 409 kts | 141° |
| 2026-05-01 14:03 | 35.66779 | -114.38819 | 18873 ft | 409 kts | 140° |
| 2026-05-01 14:03 | 35.64633 | -114.36534 | 18857 ft | 407 kts | 140° |
| 2026-05-01 14:03 | 35.62519 | -114.34282 | 18850 ft | 407 kts | 140° |
| 2026-05-01 14:03 | 35.60373 | -114.32008 | 18850 ft | 406 kts | 140° |
| 2026-05-01 14:04 | 35.58226 | -114.29739 | 18851 ft | 406 kts | 140° |
| 2026-05-01 14:04 | 35.56084 | -114.27483 | 18851 ft | 406 kts | 140° |
| 2026-05-01 14:04 | 35.53937 | -114.25225 | 18848 ft | 406 kts | 140° |
| 2026-05-01 14:04 | 35.52512 | -114.23725 | 18850 ft | 406 kts | 140° |
| 2026-05-01 14:05 | 35.49638 | -114.20698 | 18877 ft | 406 kts | 140° |
| 2026-05-01 14:05 | 35.47489 | -114.18437 | 18903 ft | 407 kts | 140° |
| 2026-05-01 14:05 | 35.45343 | -114.16186 | 18919 ft | 406 kts | 140° |
| 2026-05-01 14:05 | 35.43191 | -114.13928 | 18934 ft | 407 kts | 140° |
| 2026-05-01 14:06 | 35.41065 | -114.11700 | 18954 ft | 408 kts | 140° |
| 2026-05-01 14:06 | 35.38909 | -114.09443 | 18975 ft | 408 kts | 140° |
| 2026-05-01 14:06 | 35.36752 | -114.07182 | 18995 ft | 408 kts | 140° |
| 2026-05-01 14:06 | 35.34601 | -114.04925 | 19023 ft | 406 kts | 140° |
| 2026-05-01 14:07 | 35.32561 | -114.02526 | 19036 ft | 407 kts | 132° |
| 2026-05-01 14:07 | 35.30886 | -113.99738 | 19041 ft | 407 kts | 120° |
| 2026-05-01 14:07 | 35.29684 | -113.96617 | 19042 ft | 406 kts | 108° |
| 2026-05-01 14:08 | 35.28249 | -113.89947 | 19089 ft | 404 kts | 102° |
| 2026-05-01 14:08 | 35.27584 | -113.86584 | 19534 ft | 408 kts | 102° |
| 2026-05-01 14:08 | 35.26897 | -113.83195 | 20075 ft | 412 kts | 102° |
| 2026-05-01 14:08 | 35.26189 | -113.79772 | 20570 ft | 417 kts | 102° |
| 2026-05-01 14:09 | 35.25467 | -113.76303 | 21063 ft | 422 kts | 102° |
| 2026-05-01 14:09 | 35.24737 | -113.72807 | 21580 ft | 426 kts | 102° |
| 2026-05-01 14:09 | 35.23998 | -113.69279 | 22092 ft | 429 kts | 102° |
| 2026-05-01 14:09 | 35.23267 | -113.65764 | 22574 ft | 433 kts | 102° |
| 2026-05-01 14:10 | 35.22572 | -113.62151 | 23050 ft | 437 kts | 101° |
| 2026-05-01 14:10 | 35.21887 | -113.58520 | 23514 ft | 441 kts | 101° |
| 2026-05-01 14:10 | 35.21193 | -113.54853 | 23896 ft | 445 kts | 101° |
| 2026-05-01 14:10 | 35.20490 | -113.51144 | 24261 ft | 449 kts | 101° |
| 2026-05-01 14:11 | 35.19781 | -113.47416 | 24628 ft | 453 kts | 101° |
| 2026-05-01 14:11 | 35.18337 | -113.39851 | 25408 ft | 460 kts | 101° |
| 2026-05-01 14:11 | 35.17604 | -113.36023 | 25802 ft | 463 kts | 101° |
| 2026-05-01 14:12 | 35.16666 | -113.32294 | 26140 ft | 469 kts | 111° |
| 2026-05-01 14:12 | 35.15123 | -113.28761 | 26450 ft | 473 kts | 122° |
| 2026-05-01 14:12 | 35.13291 | -113.25393 | 26746 ft | 478 kts | 124° |
| 2026-05-01 14:12 | 35.11403 | -113.22012 | 27084 ft | 482 kts | 124° |
| 2026-05-01 14:13 | 35.09538 | -113.18654 | 27080 ft | 470 kts | 124° |
| 2026-05-01 14:13 | 35.08339 | -113.16480 | 26949 ft | 460 kts | 124° |
| 2026-05-01 14:13 | 35.05999 | -113.12228 | 26650 ft | 445 kts | 124° |
| 2026-05-01 14:13 | 35.04270 | -113.09100 | 26448 ft | 442 kts | 124° |
| 2026-05-01 14:14 | 35.02557 | -113.06001 | 26222 ft | 439 kts | 124° |
| 2026-05-01 14:14 | 35.00851 | -113.02915 | 25993 ft | 437 kts | 124° |
| 2026-05-01 14:14 | 34.99151 | -112.99848 | 25781 ft | 434 kts | 124° |
| 2026-05-01 14:14 | 34.97463 | -112.96808 | 25547 ft | 433 kts | 124° |
| 2026-05-01 14:15 | 34.95774 | -112.93761 | 25331 ft | 432 kts | 124° |
| 2026-05-01 14:15 | 34.94117 | -112.90769 | 25115 ft | 430 kts | 124° |
| 2026-05-01 14:15 | 34.92448 | -112.87763 | 24904 ft | 428 kts | 124° |
| 2026-05-01 14:15 | 34.90778 | -112.84761 | 24693 ft | 426 kts | 124° |
| 2026-05-01 14:16 | 34.89118 | -112.81786 | 24506 ft | 424 kts | 124° |
| 2026-05-01 14:16 | 34.87465 | -112.78822 | 24289 ft | 422 kts | 124° |
| 2026-05-01 14:16 | 34.85826 | -112.75884 | 24096 ft | 416 kts | 124° |
| 2026-05-01 14:16 | 34.84205 | -112.72983 | 23912 ft | 413 kts | 124° |
| 2026-05-01 14:17 | 34.82592 | -112.70092 | 23856 ft | 412 kts | 124° |
| 2026-05-01 14:17 | 34.80980 | -112.67204 | 23862 ft | 412 kts | 124° |
| 2026-05-01 14:17 | 34.79363 | -112.64312 | 23866 ft | 416 kts | 124° |
| 2026-05-01 14:17 | 34.77731 | -112.61396 | 23881 ft | 417 kts | 124° |
| 2026-05-01 14:18 | 34.76096 | -112.58475 | 23892 ft | 417 kts | 124° |
| 2026-05-01 14:18 | 34.74464 | -112.55562 | 23891 ft | 417 kts | 124° |
| 2026-05-01 14:18 | 34.72829 | -112.52649 | 23891 ft | 417 kts | 124° |
| 2026-05-01 14:18 | 34.71748 | -112.50724 | 23893 ft | 417 kts | 124° |
| 2026-05-01 14:19 | 34.69303 | -112.47081 | 24024 ft | 413 kts | 139° |
| 2026-05-01 14:19 | 34.67117 | -112.44864 | 23434 ft | 410 kts | 143° |
| 2026-05-01 14:19 | 34.64865 | -112.42707 | 22604 ft | 412 kts | 143° |
| 2026-05-01 14:19 | 34.62652 | -112.40585 | 21985 ft | 409 kts | 143° |
| 2026-05-01 14:20 | 34.60445 | -112.38449 | 21525 ft | 402 kts | 143° |
| 2026-05-01 14:20 | 34.56139 | -112.34252 | 20507 ft | 391 kts | 143° |
| 2026-05-01 14:20 | 34.54045 | -112.32208 | 20178 ft | 382 kts | 143° |
| 2026-05-01 14:21 | 34.52673 | -112.30871 | 19980 ft | 382 kts | 143° |
| 2026-05-01 14:21 | 34.50611 | -112.28861 | 19710 ft | 378 kts | 143° |
| 2026-05-01 14:21 | 34.48587 | -112.26891 | 19445 ft | 369 kts | 143° |
| 2026-05-01 14:22 | 34.44549 | -112.23224 | 18893 ft | 367 kts | 156° |
| 2026-05-01 14:22 | 34.42178 | -112.22243 | 18585 ft | 356 kts | 171° |
| 2026-05-01 14:22 | 34.39770 | -112.21646 | 18116 ft | 351 kts | 172° |
| 2026-05-01 14:22 | 34.37380 | -112.21082 | 17594 ft | 349 kts | 172° |
| 2026-05-01 14:23 | 34.34999 | -112.20503 | 17080 ft | 349 kts | 171° |
| 2026-05-01 14:23 | 34.32613 | -112.19908 | 16609 ft | 349 kts | 171° |
| 2026-05-01 14:23 | 34.30239 | -112.19304 | 16182 ft | 348 kts | 170° |
| 2026-05-01 14:23 | 34.27872 | -112.18695 | 15767 ft | 348 kts | 170° |
| 2026-05-01 14:24 | 34.25507 | -112.18086 | 15335 ft | 348 kts | 170° |
| 2026-05-01 14:24 | 34.23165 | -112.17481 | 14900 ft | 348 kts | 169° |
| 2026-05-01 14:24 | 34.20790 | -112.16868 | 14536 ft | 347 kts | 169° |
| 2026-05-01 14:24 | 34.18447 | -112.16263 | 14259 ft | 342 kts | 169° |
| 2026-05-01 14:25 | 34.16131 | -112.15665 | 13958 ft | 339 kts | 169° |
| 2026-05-01 14:25 | 34.13829 | -112.15071 | 13595 ft | 337 kts | 169° |
| 2026-05-01 14:25 | 34.11539 | -112.14481 | 13272 ft | 334 kts | 169° |
| 2026-05-01 14:25 | 34.09284 | -112.13919 | 12994 ft | 327 kts | 172° |
| 2026-05-01 14:26 | 34.07059 | -112.13845 | 12770 ft | 312 kts | 185° |
| 2026-05-01 14:26 | 34.02828 | -112.14334 | 11990 ft | 301 kts | 187° |
| 2026-05-01 14:26 | 34.00741 | -112.14581 | 11566 ft | 301 kts | 186° |
| 2026-05-01 14:27 | 33.98652 | -112.14823 | 11150 ft | 302 kts | 186° |
| 2026-05-01 14:27 | 33.96596 | -112.15057 | 10855 ft | 299 kts | 186° |
| 2026-05-01 14:27 | 33.94539 | -112.15288 | 10591 ft | 295 kts | 186° |
| 2026-05-01 14:28 | 33.90518 | -112.15778 | 10094 ft | 284 kts | 189° |
| 2026-05-01 14:28 | 33.88583 | -112.16170 | 9859 ft | 279 kts | 190° |
| 2026-05-01 14:28 | 33.86687 | -112.16577 | 9621 ft | 277 kts | 191° |
| 2026-05-01 14:28 | 33.84795 | -112.16985 | 9384 ft | 276 kts | 190° |
| 2026-05-01 14:29 | 33.82907 | -112.17390 | 9151 ft | 274 kts | 190° |
| 2026-05-01 14:29 | 33.81047 | -112.17787 | 8875 ft | 270 kts | 190° |
| 2026-05-01 14:30 | 33.75594 | -112.18943 | 8001 ft | 265 kts | 189° |
| 2026-05-01 14:30 | 33.73812 | -112.19319 | 7828 ft | 262 kts | 189° |
| 2026-05-01 14:30 | 33.72023 | -112.19697 | 7485 ft | 260 kts | 189° |
| 2026-05-01 14:31 | 33.68563 | -112.20438 | 7031 ft | 249 kts | 189° |
| 2026-05-01 14:31 | 33.66864 | -112.20802 | 6921 ft | 248 kts | 190° |
| 2026-05-01 14:31 | 33.65166 | -112.21161 | 6770 ft | 247 kts | 189° |
| 2026-05-01 14:31 | 33.63479 | -112.21517 | 6591 ft | 246 kts | 189° |
| 2026-05-01 14:32 | 33.61810 | -112.21868 | 6357 ft | 239 kts | 189° |
| 2026-05-01 14:32 | 33.60214 | -112.22205 | 6160 ft | 227 kts | 189° |
| 2026-05-01 14:32 | 33.58690 | -112.22526 | 5921 ft | 219 kts | 189° |
| 2026-05-01 14:32 | 33.57197 | -112.22845 | 5632 ft | 217 kts | 189° |
| 2026-05-01 14:33 | 33.55718 | -112.23166 | 5313 ft | 214 kts | 189° |
| 2026-05-01 14:33 | 33.54273 | -112.23479 | 5091 ft | 213 kts | 190° |
| 2026-05-01 14:33 | 33.52815 | -112.23793 | 4908 ft | 212 kts | 190° |
| 2026-05-01 14:33 | 33.51373 | -112.24105 | 4736 ft | 210 kts | 190° |
| 2026-05-01 14:34 | 33.49934 | -112.24414 | 4555 ft | 210 kts | 190° |
| 2026-05-01 14:34 | 33.48498 | -112.24723 | 4372 ft | 210 kts | 190° |
| 2026-05-01 14:34 | 33.47055 | -112.24922 | 4188 ft | 208 kts | 175° |
| 2026-05-01 14:34 | 33.45685 | -112.24424 | 4001 ft | 208 kts | 142° |
| 2026-05-01 14:35 | 33.44772 | -112.23097 | 3954 ft | 209 kts | 119° |
| 2026-05-01 14:35 | 33.44097 | -112.21549 | 3960 ft | 210 kts | 118° |
| 2026-05-01 14:35 | 33.43529 | -112.19934 | 3959 ft | 212 kts | 97° |
| 2026-05-01 14:35 | 33.43645 | -112.18175 | 3837 ft | 212 kts | 77° |
| 2026-05-01 14:36 | 33.43960 | -112.16473 | 3555 ft | 203 kts | 80° |
| 2026-05-01 14:36 | 33.44111 | -112.14861 | 3416 ft | 187 kts | 87° |
| 2026-05-01 14:36 | 33.44080 | -112.13345 | 3183 ft | 178 kts | 89° |
| 2026-05-01 14:36 | 33.44080 | -112.11917 | 2903 ft | 169 kts | 90° |
| 2026-05-01 14:37 | 33.44081 | -112.10578 | 2629 ft | 151 kts | 91° |
| 2026-05-01 14:37 | 33.44087 | -112.09373 | 2288 ft | 139 kts | 92° |
| 2026-05-01 14:37 | 33.44084 | -112.08225 | 2055 ft | 138 kts | 91° |
| 2026-05-01 14:37 | 33.44081 | -112.07097 | 1854 ft | 138 kts | 91° |
| 2026-05-01 14:38 | 33.44090 | -112.05959 | 1674 ft | 136 kts | 91° |
| 2026-05-01 14:38 | 33.44089 | -112.04834 | 1484 ft | 136 kts | 91° |
| 2026-05-01 14:38 | 33.44090 | -112.03710 | 1306 ft | 134 kts | 92° |
| 2026-05-01 14:38 | 33.44089 | -112.02602 | 1174 ft | 133 kts | 91° |
| 2026-05-01 14:39 | 33.44083 | -112.01549 | 1136 ft | 110 kts | 90° |
| 2026-05-01 14:39 | 33.44085 | -112.00880 | 1134 ft | 51 kts | 90° |
| 2026-05-01 14:39 | 33.44083 | -112.00642 | 1134 ft | 20 kts | 90° |
| 2026-05-01 14:39 | 33.44067 | -112.00484 | 1135 ft | 15 kts | 137° |
| 2026-05-01 14:40 | 33.43989 | -112.00422 | 1133 ft | 14 kts | 141° |
| 2026-05-01 14:40 | 33.43896 | -112.00370 | 1131 ft | 16 kts | 178° |
| 2026-05-01 14:40 | 33.43780 | -112.00380 | 1134 ft | 18 kts | 181° |
| 2026-05-01 14:40 | 33.43653 | -112.00379 | 1131 ft | 19 kts | 180° |
| 2026-05-01 14:41 | 33.43509 | -112.00378 | 1133 ft | 21 kts | 180° |
| 2026-05-01 14:41 | 33.43355 | -112.00378 | 1133 ft | 23 kts | 180° |
| 2026-05-01 14:41 | 33.43287 | -112.00426 | 1134 ft | 13 kts | 259° |
| 2026-05-01 14:41 | 33.43287 | -112.00548 | 1134 ft | 16 kts | 271° |
| 2026-05-01 14:42 | 33.43288 | -112.00694 | 1135 ft | 19 kts | 269° |
| 2026-05-01 14:42 | 33.43286 | -112.00863 | 1134 ft | 21 kts | 269° |
| 2026-05-01 14:42 | 33.43286 | -112.01033 | 1133 ft | 13 kts | 278° |
| 2026-05-01 14:42 | 33.43348 | -112.01072 | 1132 ft | 6 kts | 349° |
| 2026-05-01 14:43 | 33.43370 | -112.01078 | 1132 ft | 3 kts | 345° |
| 2026-05-01 14:43 | 33.43376 | -112.01080 | 1133 ft | 0 kts | 346° |